createdAt,value
2023-05-22T00:00:19.469Z,8.02
2023-05-22T00:02:46.401Z,7.70
2023-05-22T00:05:15.098Z,10.50
2023-05-22T00:07:43.371Z,9.35
2023-05-22T00:10:11.194Z,8.32
2023-05-22T00:12:38.176Z,9.43
2023-05-22T00:15:06.149Z,9.88
2023-05-22T00:17:34.263Z,9.55
2023-05-22T00:20:07.957Z,8.40
2023-05-22T00:22:35.521Z,9.27
2023-05-22T00:25:07.210Z,10.63
2023-05-22T00:27:34.831Z,9.27
2023-05-22T00:30:02.156Z,9.68
2023-05-22T00:32:30.310Z,8.95
2023-05-22T00:34:57.197Z,10.15
2023-05-22T00:37:25.440Z,10.75
2023-05-22T00:39:52.372Z,10.75
2023-05-22T00:42:19.341Z,9.95
2023-05-22T00:44:46.248Z,9.98
2023-05-22T00:47:13.074Z,8.68
2023-05-22T00:49:41.849Z,9.13
2023-05-22T00:52:10.221Z,9.40
2023-05-22T00:54:37.763Z,9.82
2023-05-22T00:57:05.829Z,12.48
2023-05-22T00:59:32.941Z,10.00
2023-05-22T01:01:59.899Z,12.98
2023-05-22T01:04:27.147Z,10.35
2023-05-22T01:06:55.226Z,9.15
2023-05-22T01:09:22.094Z,10.02
2023-05-22T01:12:36.464Z,9.98
2023-05-22T01:15:41.253Z,12.65
2023-05-22T01:18:41.804Z,9.52
2023-05-22T01:21:15.298Z,10.98
2023-05-22T01:24:25.667Z,11.02
2023-05-22T01:27:25.771Z,11.48
2023-05-22T01:30:42.031Z,10.70
2023-05-22T01:33:13.847Z,9.88
2023-05-22T01:35:43.644Z,14.23
2023-05-22T01:38:11.845Z,10.30
2023-05-22T01:40:39.661Z,10.18
2023-05-22T01:43:08.399Z,9.75
2023-05-22T01:45:35.268Z,14.55
2023-05-22T01:48:02.609Z,9.82
2023-05-22T01:50:29.781Z,11.07
2023-05-22T01:53:11.431Z,10.70
2023-05-22T01:56:12.702Z,11.75
2023-05-22T01:59:15.163Z,12.00
2023-05-22T02:01:43.100Z,11.10
2023-05-22T02:04:11.356Z,9.13
2023-05-22T02:06:39.570Z,11.30
2023-05-22T02:09:08.471Z,10.63
2023-05-22T02:11:37.533Z,13.18
2023-05-22T02:14:04.404Z,12.05
2023-05-22T02:16:31.532Z,16.88
2023-05-22T02:19:08.322Z,11.18
2023-05-22T02:21:36.193Z,10.52
2023-05-22T02:24:03.670Z,9.00
2023-05-22T02:26:30.623Z,11.18
2023-05-22T02:28:57.664Z,9.60
2023-05-22T02:31:24.670Z,12.18
2023-05-22T02:33:51.586Z,10.68
2023-05-22T02:36:18.964Z,10.50
2023-05-22T02:38:45.897Z,11.65
2023-05-22T02:41:12.729Z,10.25
2023-05-22T02:43:39.578Z,11.45
2023-05-22T02:46:06.511Z,12.68
2023-05-22T02:48:33.422Z,12.18
2023-05-22T02:51:00.307Z,10.35
2023-05-22T02:53:27.810Z,10.65
2023-05-22T02:55:58.779Z,13.18
2023-05-22T02:58:25.763Z,11.40
2023-05-22T03:00:55.696Z,11.63
2023-05-22T03:03:25.097Z,11.35
2023-05-22T03:05:58.223Z,11.57
2023-05-22T03:08:28.318Z,11.40
2023-05-22T03:10:57.077Z,11.77
2023-05-22T03:13:24.202Z,11.38
2023-05-22T03:15:51.895Z,11.68
2023-05-22T03:18:18.872Z,11.75
2023-05-22T03:20:45.750Z,11.88
2023-05-22T03:23:13.414Z,10.25
2023-05-22T03:25:40.247Z,10.75
2023-05-22T03:28:07.164Z,11.50
2023-05-22T03:30:34.112Z,14.00
2023-05-22T03:33:01.127Z,10.48
2023-05-22T03:35:28.032Z,12.77
2023-05-22T03:37:54.941Z,11.18
2023-05-22T03:40:22.142Z,10.23
2023-05-22T03:42:49.526Z,12.27
2023-05-22T03:45:16.657Z,12.07
2023-05-22T03:47:43.541Z,12.60
2023-05-22T03:50:11.006Z,10.75
2023-05-22T03:52:38.214Z,12.23
2023-05-22T03:55:06.734Z,10.48
2023-05-22T03:57:33.600Z,11.40
2023-05-22T04:00:07.490Z,12.20
2023-05-22T04:02:34.378Z,12.02
2023-05-22T04:05:01.410Z,10.75
2023-05-22T04:07:28.290Z,10.45
2023-05-22T04:09:55.144Z,10.57
2023-05-22T04:12:22.085Z,13.38
2023-05-22T04:14:48.889Z,9.32
2023-05-22T04:17:16.027Z,11.82
2023-05-22T04:19:42.882Z,11.48
2023-05-22T04:22:09.752Z,11.05
2023-05-22T04:24:39.628Z,12.68
2023-05-22T04:27:06.986Z,11.20
2023-05-22T04:29:36.292Z,9.80
2023-05-22T04:32:03.945Z,10.57
2023-05-22T04:34:30.811Z,13.70
2023-05-22T04:36:58.063Z,12.45
2023-05-22T04:39:26.298Z,10.70
2023-05-22T04:41:53.279Z,9.40
2023-05-22T04:44:22.942Z,10.88
2023-05-22T04:46:51.295Z,11.80
2023-05-22T04:49:18.150Z,12.90
2023-05-22T04:51:45.224Z,10.80
2023-05-22T04:54:12.065Z,11.77
2023-05-22T04:56:38.938Z,13.40
2023-05-22T04:59:08.981Z,13.82
2023-05-22T05:01:37.852Z,10.38
2023-05-22T05:04:05.192Z,11.38
2023-05-22T05:06:32.037Z,9.38
2023-05-22T05:08:58.881Z,10.23
2023-05-22T05:11:26.027Z,12.95
2023-05-22T05:13:52.873Z,11.43
2023-05-22T05:16:19.794Z,12.32
2023-05-22T05:18:46.751Z,10.40
2023-05-22T05:21:13.619Z,10.75
2023-05-22T05:23:41.081Z,10.18
2023-05-22T05:26:07.935Z,10.07
2023-05-22T05:28:34.881Z,10.10
2023-05-22T05:31:01.795Z,12.75
2023-05-22T05:33:28.812Z,13.18
2023-05-22T05:35:55.805Z,9.57
2023-05-22T05:38:23.058Z,9.18
2023-05-22T05:40:49.934Z,10.05
2023-05-22T05:43:16.767Z,11.48
2023-05-22T05:45:43.962Z,10.23
2023-05-22T05:48:12.083Z,9.93
2023-05-22T05:50:39.436Z,12.05
2023-05-22T05:53:08.224Z,11.27
2023-05-22T05:55:35.158Z,12.48
2023-05-22T05:58:01.972Z,10.40
2023-05-22T06:00:28.872Z,9.65
2023-05-22T06:02:56.139Z,13.80
2023-05-22T06:05:23.581Z,13.25
2023-05-22T06:07:50.550Z,8.90
2023-05-22T06:10:17.843Z,13.18
2023-05-22T06:12:44.716Z,11.43
2023-05-22T06:15:13.638Z,10.82
2023-05-22T06:17:40.880Z,10.23
2023-05-22T06:20:09.206Z,12.68
2023-05-22T06:22:36.584Z,14.65
2023-05-22T06:25:03.700Z,11.20
2023-05-22T06:27:30.828Z,12.65
2023-05-22T06:29:57.877Z,10.73
2023-05-22T06:32:24.873Z,13.65
2023-05-22T06:34:51.790Z,10.18
2023-05-22T06:37:18.640Z,12.13
2023-05-22T06:39:45.530Z,11.65
2023-05-22T06:42:12.419Z,11.13
2023-05-22T06:44:39.260Z,11.65
2023-05-22T06:47:06.219Z,9.98
2023-05-22T06:49:33.098Z,13.27
2023-05-22T06:52:00.222Z,10.43
2023-05-22T06:54:28.737Z,9.77
2023-05-22T06:56:57.136Z,24.02
2023-05-22T06:59:23.979Z,14.35
2023-05-22T07:01:51.277Z,15.50
2023-05-22T07:04:18.190Z,10.10
2023-05-22T07:06:46.226Z,9.93
2023-05-22T07:09:13.971Z,12.80
2023-05-22T07:11:42.836Z,12.00
2023-05-22T07:14:12.411Z,11.65
2023-05-22T07:16:40.869Z,13.38
2023-05-22T07:19:09.168Z,10.88
2023-05-22T07:21:36.137Z,10.20
2023-05-22T07:24:08.112Z,10.18
2023-05-22T07:26:38.822Z,12.45
2023-05-22T07:29:05.791Z,11.63
2023-05-22T07:31:34.409Z,9.50
2023-05-22T07:34:01.443Z,13.02
2023-05-22T07:36:28.275Z,9.05
2023-05-22T07:38:55.171Z,11.05
2023-05-22T07:41:22.691Z,14.15
2023-05-22T07:43:50.099Z,11.65
2023-05-22T07:46:17.006Z,10.55
2023-05-22T07:48:43.933Z,11.40
2023-05-22T07:51:10.814Z,9.13
2023-05-22T07:53:37.751Z,11.50
2023-05-22T07:56:04.778Z,11.02
2023-05-22T07:58:32.100Z,12.80
2023-05-22T08:00:59.064Z,10.82
2023-05-22T08:03:26.227Z,12.55
2023-05-22T08:05:53.215Z,11.38
2023-05-22T08:08:20.278Z,11.25
2023-05-22T08:11:03.124Z,14.82
2023-05-22T08:13:31.323Z,13.90
2023-05-22T08:16:00.312Z,13.48
2023-05-22T08:18:29.411Z,14.45
2023-05-22T08:20:56.906Z,13.85
2023-05-22T08:23:23.749Z,12.75
2023-05-22T08:25:50.577Z,14.32
2023-05-22T08:28:18.219Z,11.50
2023-05-22T08:30:45.192Z,12.50
2023-05-22T08:33:12.242Z,13.18
2023-05-22T08:35:39.449Z,10.85
2023-05-22T08:38:06.378Z,10.77
2023-05-22T08:40:39.375Z,12.00
2023-05-22T08:43:07.064Z,11.95
2023-05-22T08:45:34.637Z,13.75
2023-05-22T08:48:06.346Z,11.57
2023-05-22T08:50:40.943Z,11.93
2023-05-22T08:53:11.334Z,10.57
2023-05-22T08:55:38.516Z,12.05
2023-05-22T08:58:06.145Z,12.65
2023-05-22T09:00:33.337Z,13.68
2023-05-22T09:03:00.469Z,11.85
2023-05-22T09:05:27.578Z,10.73
2023-05-22T09:08:02.716Z,12.50
2023-05-22T09:10:32.443Z,10.43
2023-05-22T09:13:11.261Z,13.10
2023-05-22T09:15:38.384Z,11.35
2023-05-22T09:18:06.379Z,9.63
2023-05-22T09:20:39.248Z,8.75
2023-05-22T09:23:20.254Z,12.63
2023-05-22T09:25:47.742Z,14.52
2023-05-22T09:28:14.602Z,13.07
2023-05-22T09:30:42.627Z,10.32
2023-05-22T09:33:14.226Z,12.82
2023-05-22T09:35:42.112Z,10.73
2023-05-22T09:38:12.536Z,9.60
2023-05-22T09:40:40.970Z,10.90
2023-05-22T09:43:10.171Z,13.57
2023-05-22T09:45:39.264Z,10.73
2023-05-22T09:48:08.828Z,13.75
2023-05-22T09:50:36.985Z,11.35
2023-05-22T09:53:05.279Z,13.30
2023-05-22T09:55:33.668Z,11.70
2023-05-22T09:58:04.878Z,9.60
2023-05-22T10:00:34.577Z,11.98
2023-05-22T10:03:16.519Z,10.50
2023-05-22T10:05:52.144Z,10.45
2023-05-22T10:08:36.517Z,10.48
2023-05-22T10:11:03.916Z,10.35
2023-05-22T10:13:31.354Z,13.55
2023-05-22T10:16:00.249Z,11.32
2023-05-22T10:18:27.628Z,13.40
2023-05-22T10:20:55.187Z,11.57
2023-05-22T10:23:22.601Z,11.77
2023-05-22T10:25:50.157Z,13.95
2023-05-22T10:28:29.451Z,10.35
2023-05-22T10:31:12.546Z,18.10
2023-05-22T10:33:47.949Z,10.70
2023-05-22T10:36:31.520Z,9.40
2023-05-22T10:39:33.533Z,12.32
2023-05-22T10:42:00.524Z,9.60
2023-05-22T10:44:27.465Z,10.68
2023-05-22T10:46:54.414Z,9.52
2023-05-22T10:49:26.184Z,11.52
2023-05-22T10:51:57.126Z,15.82
2023-05-22T10:54:44.389Z,12.00
2023-05-22T10:57:17.212Z,19.15
2023-05-22T10:59:47.914Z,10.13
2023-05-22T11:02:29.354Z,9.85
2023-05-22T11:05:30.811Z,10.93
2023-05-22T11:08:12.075Z,9.38
2023-05-22T11:11:00.618Z,8.73
2023-05-22T11:13:29.338Z,14.75
2023-05-22T11:15:57.704Z,10.88
2023-05-22T11:18:28.345Z,10.23
2023-05-22T11:20:55.838Z,10.38
2023-05-22T11:23:25.653Z,10.02
2023-05-22T11:25:52.749Z,13.18
2023-05-22T11:28:19.727Z,9.80
2023-05-22T11:30:47.608Z,11.25
2023-05-22T11:33:15.239Z,13.43
2023-05-22T11:35:44.590Z,11.52
2023-05-22T11:38:12.510Z,14.15
2023-05-22T11:40:39.521Z,12.73
2023-05-22T11:43:07.195Z,12.85
2023-05-22T11:45:37.771Z,10.07
2023-05-22T11:48:04.738Z,11.93
2023-05-22T11:50:41.819Z,16.70
2023-05-22T11:53:10.184Z,12.40
2023-05-22T11:55:37.016Z,12.60
2023-05-22T11:58:03.841Z,11.15
2023-05-22T12:00:31.981Z,15.30
2023-05-22T12:02:59.491Z,19.83
2023-05-22T12:05:26.653Z,13.32
2023-05-22T12:07:53.811Z,11.20
2023-05-22T12:10:20.876Z,13.38
2023-05-22T12:12:48.174Z,14.15
2023-05-22T12:15:20.368Z,9.82
2023-05-22T12:17:47.278Z,14.10
2023-05-22T12:20:14.598Z,13.48
2023-05-22T12:22:43.520Z,11.10
2023-05-22T12:25:20.612Z,11.77
2023-05-22T12:27:47.633Z,14.90
2023-05-22T12:30:15.429Z,18.58
2023-05-22T12:32:48.932Z,10.23
2023-05-22T12:35:17.505Z,13.18
2023-05-22T12:37:52.006Z,9.88
2023-05-22T12:40:19.201Z,10.57
2023-05-22T12:42:46.180Z,13.35
2023-05-22T12:45:13.831Z,11.60
2023-05-22T12:47:40.829Z,12.07
2023-05-22T12:50:08.647Z,11.95
2023-05-22T12:52:36.231Z,11.63
2023-05-22T12:55:03.238Z,12.93
2023-05-22T12:57:30.076Z,10.90
2023-05-22T12:59:57.193Z,10.00
2023-05-22T13:02:24.128Z,10.18
2023-05-22T13:04:51.021Z,13.15
2023-05-22T13:07:18.001Z,11.75
2023-05-22T13:09:44.821Z,10.73
2023-05-22T13:12:11.763Z,14.85
2023-05-22T13:14:40.298Z,13.20
2023-05-22T13:17:07.521Z,11.82
2023-05-22T13:19:34.686Z,14.52
2023-05-22T13:22:01.745Z,11.05
2023-05-22T13:24:28.561Z,9.23
2023-05-22T13:26:55.383Z,10.77
2023-05-22T13:29:22.189Z,15.82
2023-05-22T13:31:49.035Z,14.23
2023-05-22T13:34:16.088Z,9.77
2023-05-22T13:36:43.094Z,10.40
2023-05-22T13:39:09.941Z,11.15
2023-05-22T13:41:36.837Z,12.32
2023-05-22T13:44:03.698Z,10.90
2023-05-22T13:46:30.676Z,9.40
2023-05-22T13:48:57.526Z,11.70
2023-05-22T13:51:24.345Z,11.15
2023-05-22T13:53:51.170Z,11.88
2023-05-22T13:56:18.106Z,11.07
2023-05-22T13:58:45.001Z,10.88
2023-05-22T14:01:11.887Z,12.35
2023-05-22T14:03:39.165Z,9.13
2023-05-22T14:06:06.360Z,11.45
2023-05-22T14:08:33.233Z,9.13
2023-05-22T14:11:00.131Z,7.53
2023-05-22T14:13:26.999Z,8.73
2023-05-22T14:15:53.932Z,7.43
2023-05-22T14:18:21.066Z,8.93
2023-05-22T14:20:48.028Z,12.20
2023-05-22T14:23:15.684Z,8.50
2023-05-22T14:25:43.271Z,12.10
2023-05-22T14:28:14.054Z,8.60
2023-05-22T14:30:40.999Z,8.05
2023-05-22T14:33:08.743Z,9.52
2023-05-22T14:35:36.098Z,12.82
2023-05-22T14:38:03.092Z,8.75
2023-05-22T14:40:30.057Z,7.65
2023-05-22T14:42:56.894Z,7.68
2023-05-22T14:45:24.274Z,8.30
2023-05-22T14:47:51.215Z,8.20
2023-05-22T14:50:20.383Z,7.00
2023-05-22T14:52:51.248Z,8.02
2023-05-22T14:55:18.372Z,8.18
2023-05-22T14:57:45.478Z,7.50
2023-05-22T15:00:13.210Z,11.40
2023-05-22T15:02:40.860Z,9.02
2023-05-22T15:05:08.959Z,7.85
2023-05-22T15:07:43.922Z,8.13
2023-05-22T15:10:13.199Z,8.80
2023-05-22T15:12:40.221Z,9.45
2023-05-22T15:15:08.104Z,17.42
2023-05-22T15:17:34.974Z,11.27
2023-05-22T15:20:01.912Z,11.32
2023-05-22T15:22:28.765Z,10.93
2023-05-22T15:25:11.531Z,10.27
2023-05-22T15:27:39.652Z,8.45
2023-05-22T15:30:09.595Z,8.93
2023-05-22T15:32:37.977Z,10.98
2023-05-22T15:35:06.699Z,7.60
2023-05-22T15:37:34.071Z,6.63
2023-05-22T15:40:01.920Z,6.50
2023-05-22T15:42:29.377Z,11.25
2023-05-22T15:44:57.853Z,8.15
2023-05-22T15:47:24.945Z,9.23
2023-05-22T15:49:52.718Z,11.98
2023-05-22T15:52:21.021Z,9.05
2023-05-22T15:54:47.873Z,8.23
2023-05-22T15:57:14.744Z,6.78
2023-05-22T15:59:41.685Z,6.13
2023-05-22T16:02:08.604Z,7.38
2023-05-22T16:04:35.494Z,5.82
2023-05-22T16:07:02.386Z,8.68
2023-05-22T16:09:31.404Z,6.97
2023-05-22T16:11:59.436Z,5.35
2023-05-22T16:14:26.251Z,11.20
2023-05-22T16:16:53.096Z,8.02
2023-05-22T16:19:19.964Z,6.97
2023-05-22T16:21:46.887Z,9.25
2023-05-22T16:24:13.891Z,6.63
2023-05-22T16:26:40.926Z,7.35
2023-05-22T16:29:08.899Z,5.85
2023-05-22T16:31:35.973Z,5.90
2023-05-22T16:34:04.029Z,10.98
2023-05-22T16:36:31.400Z,7.82
2023-05-22T16:38:58.600Z,9.77
2023-05-22T16:41:26.818Z,10.30
2023-05-22T16:43:53.978Z,13.93
2023-05-22T16:46:21.162Z,8.63
2023-05-22T16:48:48.451Z,13.45
2023-05-22T16:51:15.337Z,9.80
2023-05-22T16:53:42.163Z,11.50
2023-05-22T16:56:09.094Z,10.43
2023-05-22T16:58:36.051Z,8.10
2023-05-22T17:01:03.099Z,8.82
2023-05-22T17:03:30.099Z,9.90
2023-05-22T17:05:57.189Z,9.30
2023-05-22T17:08:24.273Z,8.77
2023-05-22T17:10:51.355Z,7.80
2023-05-22T17:13:20.938Z,9.60
2023-05-22T17:15:48.966Z,12.18
2023-05-22T17:18:19.686Z,13.00
2023-05-22T17:20:51.720Z,13.48
2023-05-22T17:23:18.519Z,12.30
2023-05-22T17:25:46.755Z,17.05
2023-05-22T17:28:14.956Z,13.25
2023-05-22T17:30:44.129Z,14.98
2023-05-22T17:33:12.079Z,15.23
2023-05-22T17:35:39.006Z,16.15
2023-05-22T17:38:08.376Z,15.50
2023-05-22T17:40:44.857Z,15.60
2023-05-22T17:43:13.845Z,17.55
2023-05-22T17:45:41.714Z,12.70
2023-05-22T17:48:08.818Z,14.95
2023-05-22T17:50:35.655Z,11.65
2023-05-22T17:53:02.908Z,13.23
2023-05-22T17:55:29.780Z,13.20
2023-05-22T17:57:56.789Z,13.20
2023-05-22T18:00:23.850Z,15.55
2023-05-22T18:02:50.954Z,14.45
2023-05-22T18:05:17.962Z,11.52
2023-05-22T18:07:44.871Z,14.35
2023-05-22T18:10:11.842Z,9.10
2023-05-22T18:12:38.804Z,12.70
2023-05-22T18:15:09.451Z,9.88
2023-05-22T18:17:36.405Z,11.10
2023-05-22T18:20:06.260Z,9.73
2023-05-22T18:22:33.113Z,17.05
2023-05-22T18:24:59.926Z,14.52
2023-05-22T18:27:27.706Z,8.80
2023-05-22T18:29:55.458Z,9.38
2023-05-22T18:32:22.815Z,11.98
2023-05-22T18:34:49.811Z,10.18
2023-05-22T18:37:16.704Z,10.05
2023-05-22T18:39:43.969Z,10.20
2023-05-22T18:42:10.958Z,9.27
2023-05-22T18:44:37.934Z,11.57
2023-05-22T18:47:05.553Z,9.48
2023-05-22T18:49:32.883Z,10.60
2023-05-22T18:51:59.939Z,13.00
2023-05-22T18:54:27.488Z,12.57
2023-05-22T18:56:54.313Z,11.90
2023-05-22T18:59:21.245Z,12.52
2023-05-22T19:01:48.099Z,11.73
2023-05-22T19:04:15.070Z,10.65
2023-05-22T19:06:42.082Z,11.90
2023-05-22T19:09:12.097Z,8.73
2023-05-22T19:11:39.239Z,10.13
2023-05-22T19:14:06.085Z,10.38
2023-05-22T19:16:32.924Z,12.07
2023-05-22T19:18:59.899Z,9.63
2023-05-22T19:21:26.826Z,12.75
2023-05-22T19:23:53.664Z,8.75
2023-05-22T19:26:21.035Z,13.52
2023-05-22T19:28:47.872Z,9.98
2023-05-22T19:31:14.731Z,8.40
2023-05-22T19:33:41.573Z,9.68
2023-05-22T19:36:08.448Z,8.88
2023-05-22T19:38:35.387Z,8.93
2023-05-22T19:41:02.970Z,10.57
2023-05-22T19:43:31.348Z,9.23
2023-05-22T19:45:58.489Z,10.27
2023-05-22T19:48:25.723Z,12.23
2023-05-22T19:50:52.950Z,8.55
2023-05-22T19:53:19.764Z,9.23
2023-05-22T19:55:47.513Z,9.52
2023-05-22T19:58:14.415Z,8.88
2023-05-22T20:00:41.699Z,8.50
2023-05-22T20:03:09.358Z,8.90
2023-05-22T20:05:36.366Z,11.05
2023-05-22T20:08:03.314Z,9.80
2023-05-22T20:10:31.249Z,7.70
2023-05-22T20:12:59.328Z,8.82
2023-05-22T20:15:26.183Z,8.30
2023-05-22T20:17:54.410Z,8.57
2023-05-22T20:20:24.074Z,8.55
2023-05-22T20:22:52.708Z,10.68
2023-05-22T20:25:21.228Z,13.43
2023-05-22T20:27:48.108Z,9.98
2023-05-22T20:30:15.290Z,9.05
2023-05-22T20:32:46.640Z,7.47
2023-05-22T20:35:14.002Z,7.60
2023-05-22T20:37:41.607Z,8.95
2023-05-22T20:40:09.501Z,12.23
2023-05-22T20:42:37.803Z,7.60
2023-05-22T20:45:06.211Z,9.23
2023-05-22T20:47:36.134Z,7.55
2023-05-22T20:50:03.261Z,8.13
2023-05-22T20:52:30.454Z,9.00
2023-05-22T20:54:57.954Z,8.05
2023-05-22T20:57:25.657Z,8.95
2023-05-22T20:59:54.082Z,7.20
2023-05-22T21:02:21.156Z,8.85
2023-05-22T21:04:47.997Z,9.45
2023-05-22T21:07:14.825Z,7.00
2023-05-22T21:09:42.181Z,7.43
2023-05-22T21:12:09.248Z,9.38
2023-05-22T21:14:36.285Z,11.30
2023-05-22T21:17:03.769Z,11.82
2023-05-22T21:19:30.760Z,8.73
2023-05-22T21:21:57.771Z,9.55
2023-05-22T21:24:24.863Z,10.30
2023-05-22T21:26:51.704Z,9.88
2023-05-22T21:29:18.571Z,11.70
2023-05-22T21:31:45.728Z,10.57
2023-05-22T21:34:12.814Z,11.63
2023-05-22T21:36:39.640Z,10.90
2023-05-22T21:39:06.506Z,10.75
2023-05-22T21:41:33.479Z,15.18
2023-05-22T21:44:00.626Z,12.02
2023-05-22T21:46:27.880Z,15.48
2023-05-22T21:48:54.792Z,11.80
2023-05-22T21:51:21.688Z,12.00
2023-05-22T21:53:48.521Z,11.30
2023-05-22T21:56:15.376Z,12.73
2023-05-22T21:58:42.243Z,11.73
2023-05-22T22:01:10.069Z,13.82
2023-05-22T22:03:38.859Z,14.23
2023-05-22T22:06:06.290Z,16.55
2023-05-22T22:08:33.202Z,14.27
2023-05-22T22:11:00.121Z,14.32
2023-05-22T22:13:26.938Z,13.18
2023-05-22T22:15:53.765Z,12.75
2023-05-22T22:18:20.734Z,13.27
2023-05-22T22:20:50.176Z,10.70
2023-05-22T22:23:17.165Z,11.05
2023-05-22T22:25:44.007Z,12.48
2023-05-22T22:28:11.364Z,13.15
2023-05-22T22:30:38.401Z,19.30
2023-05-22T22:33:05.435Z,16.33
2023-05-22T22:35:32.272Z,16.90
2023-05-22T22:37:59.135Z,16.23
2023-05-22T22:40:26.938Z,18.45
2023-05-22T22:42:54.001Z,18.48
2023-05-22T22:45:21.084Z,18.85
2023-05-22T22:47:48.239Z,19.10
2023-05-22T22:50:15.197Z,19.23
2023-05-22T22:52:45.524Z,21.25
2023-05-22T22:55:13.500Z,18.08
2023-05-22T22:57:46.984Z,21.02
2023-05-22T23:00:14.440Z,20.02
2023-05-22T23:02:41.343Z,21.65
2023-05-22T23:05:08.946Z,30.23
2023-05-22T23:07:36.156Z,28.13
2023-05-22T23:10:03.611Z,31.77
2023-05-22T23:12:35.046Z,29.08
2023-05-22T23:15:02.945Z,31.63
2023-05-22T23:17:30.172Z,32.67
2023-05-22T23:19:57.321Z,28.63
2023-05-22T23:22:24.377Z,32.47
2023-05-22T23:24:51.273Z,33.58
2023-05-22T23:27:18.188Z,35.42
2023-05-22T23:29:45.060Z,37.40
2023-05-22T23:32:14.592Z,41.78
2023-05-22T23:34:42.287Z,56.15
2023-05-22T23:37:09.900Z,69.03
2023-05-22T23:39:36.740Z,58.80
2023-05-22T23:42:03.909Z,61.35
2023-05-22T23:44:31.474Z,61.35
2023-05-22T23:46:59.413Z,60.22
2023-05-22T23:49:26.791Z,55.40
2023-05-22T23:51:53.817Z,50.63
2023-05-22T23:54:20.775Z,51.08
2023-05-22T23:56:47.745Z,45.20
2023-05-22T23:59:15.636Z,49.88
